createdAt,value
2022-10-02T00:00:04.356Z,51.8
2022-10-02T00:01:04.507Z,51.8
2022-10-02T00:02:04.366Z,51.8
2022-10-02T00:03:04.378Z,51.9
2022-10-02T00:04:04.441Z,51.8
2022-10-02T00:05:04.356Z,51.8
2022-10-02T00:06:04.349Z,51.8
2022-10-02T00:07:04.367Z,51.8
2022-10-02T00:08:04.363Z,51.8
2022-10-02T00:09:04.359Z,51.8
2022-10-02T00:10:04.382Z,51.9
2022-10-02T00:11:04.391Z,51.8
2022-10-02T00:12:04.364Z,51.8
2022-10-02T00:13:04.357Z,51.9
2022-10-02T00:14:04.345Z,52.0
2022-10-02T00:15:04.468Z,52.0
2022-10-02T00:16:04.441Z,52.2
2022-10-02T00:17:04.368Z,52.1
2022-10-02T00:18:04.355Z,52.1
2022-10-02T00:19:04.361Z,52.1
2022-10-02T00:20:04.355Z,52.1
2022-10-02T00:21:04.376Z,52.1
2022-10-02T00:22:04.387Z,52.0
2022-10-02T00:23:04.373Z,52.1
2022-10-02T00:24:04.349Z,52.1
2022-10-02T00:25:04.355Z,52.1
2022-10-02T00:26:04.353Z,52.2
2022-10-02T00:27:04.383Z,52.1
2022-10-02T00:28:04.432Z,52.1
2022-10-02T00:29:04.358Z,52.1
2022-10-02T00:30:04.359Z,52.1
2022-10-02T00:31:04.366Z,52.1
2022-10-02T00:32:04.461Z,52.1
2022-10-02T00:33:04.375Z,52.1
2022-10-02T00:34:04.391Z,52.1
2022-10-02T00:35:04.391Z,52.1
2022-10-02T00:36:04.370Z,52.1
2022-10-02T00:37:04.368Z,52.1
2022-10-02T00:38:30.789Z,53.1
2022-10-02T00:39:04.762Z,52.3
2022-10-02T00:40:04.656Z,52.3
2022-10-02T00:41:04.658Z,52.3
2022-10-02T00:42:05.520Z,52.3
2022-10-02T00:43:04.653Z,52.4
2022-10-02T00:44:04.688Z,52.4
2022-10-02T00:45:04.692Z,52.4
2022-10-02T00:46:04.746Z,52.5
2022-10-02T00:47:04.657Z,52.6
2022-10-02T00:48:04.623Z,52.5
2022-10-02T00:49:04.517Z,52.5
2022-10-02T00:50:04.524Z,52.5
2022-10-02T00:51:04.559Z,52.6
2022-10-02T00:52:04.544Z,52.6
2022-10-02T00:53:04.524Z,52.5
2022-10-02T00:54:04.538Z,52.6
2022-10-02T00:55:04.602Z,52.6
2022-10-02T00:56:04.526Z,52.5
2022-10-02T00:57:04.592Z,52.6
2022-10-02T00:58:04.534Z,52.6
2022-10-02T00:59:04.527Z,52.6
2022-10-02T01:00:04.522Z,52.6
2022-10-02T01:01:04.658Z,52.5
2022-10-02T01:02:04.607Z,52.6
2022-10-02T01:03:04.575Z,52.6
2022-10-02T01:04:04.527Z,52.6
2022-10-02T01:05:04.518Z,52.6
2022-10-02T01:06:04.589Z,52.7
2022-10-02T01:07:04.531Z,52.6
2022-10-02T01:08:04.536Z,52.7
2022-10-02T01:09:04.522Z,52.6
2022-10-02T01:10:04.527Z,52.6
2022-10-02T01:11:04.525Z,52.7
2022-10-02T01:12:04.553Z,52.6
2022-10-02T01:13:04.541Z,52.6
2022-10-02T01:14:04.524Z,52.6
2022-10-02T01:15:04.525Z,52.6
2022-10-02T01:16:04.593Z,52.7
2022-10-02T01:17:04.540Z,52.7
2022-10-02T01:18:04.554Z,52.6
2022-10-02T01:19:04.583Z,52.7
2022-10-02T01:20:04.530Z,52.7
2022-10-02T01:21:05.079Z,52.6
2022-10-02T01:22:04.526Z,52.7
2022-10-02T01:23:04.553Z,52.6
2022-10-02T01:24:04.676Z,52.6
2022-10-02T01:25:04.539Z,52.7
2022-10-02T01:26:04.528Z,52.6
2022-10-02T01:27:04.549Z,52.7
2022-10-02T01:28:04.560Z,52.7
2022-10-02T01:29:04.548Z,52.6
2022-10-02T01:30:04.564Z,52.6
2022-10-02T01:31:04.546Z,52.7
2022-10-02T01:32:04.565Z,52.7
2022-10-02T01:33:04.529Z,52.7
2022-10-02T01:34:04.543Z,52.8
2022-10-02T01:35:04.538Z,52.9
2022-10-02T01:36:04.559Z,52.8
2022-10-02T01:37:04.547Z,53.0
2022-10-02T01:38:04.534Z,53.0
2022-10-02T01:39:04.541Z,53.1
2022-10-02T01:40:04.524Z,53.1
2022-10-02T01:41:04.529Z,53.2
2022-10-02T01:42:04.558Z,53.2
2022-10-02T01:43:04.538Z,53.2
2022-10-02T01:44:04.547Z,53.2
2022-10-02T01:45:04.529Z,53.2
2022-10-02T01:46:04.581Z,53.2
2022-10-02T01:47:04.530Z,53.2
2022-10-02T01:48:04.568Z,53.3
2022-10-02T01:49:04.539Z,53.3
2022-10-02T01:50:04.540Z,53.3
2022-10-02T01:51:04.528Z,53.4
2022-10-02T01:52:04.545Z,53.4
2022-10-02T01:53:04.535Z,53.4
2022-10-02T01:54:04.573Z,53.4
2022-10-02T01:55:04.542Z,53.4
2022-10-02T01:56:04.540Z,53.4
2022-10-02T01:57:04.537Z,53.4
2022-10-02T01:58:04.543Z,53.4
2022-10-02T01:59:04.535Z,53.5
2022-10-02T02:00:04.579Z,53.5
2022-10-02T02:01:04.575Z,53.6
2022-10-02T02:02:04.600Z,53.6
2022-10-02T02:03:04.531Z,53.6
2022-10-02T02:04:04.552Z,53.6
2022-10-02T02:05:04.563Z,53.6
2022-10-02T02:06:04.571Z,53.6
2022-10-02T02:07:04.544Z,53.6
2022-10-02T02:08:04.538Z,53.7
2022-10-02T02:09:04.536Z,53.7
2022-10-02T02:10:04.546Z,53.8
2022-10-02T02:11:04.579Z,53.8
2022-10-02T02:12:04.586Z,53.9
2022-10-02T02:13:04.549Z,53.9
2022-10-02T02:14:04.547Z,53.9
2022-10-02T02:15:04.549Z,53.9
2022-10-02T02:16:04.604Z,54.0
2022-10-02T02:17:04.539Z,54.1
2022-10-02T02:18:04.589Z,54.0
2022-10-02T02:19:04.544Z,54.2
2022-10-02T02:20:04.549Z,54.2
2022-10-02T02:21:04.550Z,54.2
2022-10-02T02:22:04.560Z,54.1
2022-10-02T02:23:04.546Z,54.2
2022-10-02T02:24:04.577Z,54.2
2022-10-02T02:25:04.562Z,54.3
2022-10-02T02:26:04.546Z,54.3
2022-10-02T02:27:04.549Z,54.4
2022-10-02T02:28:04.679Z,54.4
2022-10-02T02:29:04.761Z,54.5
2022-10-02T02:30:04.594Z,54.5
2022-10-02T02:31:04.593Z,54.5
2022-10-02T02:32:04.562Z,54.5
2022-10-02T02:33:04.545Z,54.5
2022-10-02T02:34:04.545Z,54.6
2022-10-02T02:35:04.550Z,54.5
2022-10-02T02:36:04.593Z,54.5
2022-10-02T02:37:04.545Z,54.6
2022-10-02T02:38:04.556Z,54.5
2022-10-02T02:39:04.572Z,54.5
2022-10-02T02:40:04.553Z,54.6
2022-10-02T02:41:04.548Z,54.6
2022-10-02T02:42:04.584Z,54.5
2022-10-02T02:43:05.468Z,54.5
2022-10-02T02:44:04.552Z,54.5
2022-10-02T02:45:04.552Z,54.5
2022-10-02T02:46:04.597Z,54.6
2022-10-02T02:47:04.578Z,54.6
2022-10-02T02:48:04.598Z,54.7
2022-10-02T02:49:04.555Z,54.7
2022-10-02T02:50:04.587Z,54.8
2022-10-02T02:51:04.551Z,54.8
2022-10-02T02:52:04.558Z,55.0
2022-10-02T02:53:04.564Z,55.1
2022-10-02T02:54:04.587Z,55.0
2022-10-02T02:55:04.548Z,55.1
2022-10-02T02:56:04.565Z,55.1
2022-10-02T02:57:04.554Z,55.1
2022-10-02T02:58:04.564Z,55.3
2022-10-02T02:59:04.546Z,55.3
2022-10-02T03:00:04.599Z,55.4
2022-10-02T03:01:04.608Z,55.6
2022-10-02T03:02:04.663Z,55.5
2022-10-02T03:03:04.562Z,55.6
2022-10-02T03:04:04.577Z,55.7
2022-10-02T03:05:04.627Z,55.8
2022-10-02T03:06:04.597Z,55.8
2022-10-02T03:07:04.556Z,55.9
2022-10-02T03:08:04.563Z,56.0
2022-10-02T03:09:04.566Z,55.9
2022-10-02T03:10:04.567Z,56.1
2022-10-02T03:11:04.556Z,56.1
2022-10-02T03:12:04.627Z,56.2
2022-10-02T03:13:04.560Z,56.1
2022-10-02T03:14:04.572Z,56.4
2022-10-02T03:15:04.556Z,56.4
2022-10-02T03:16:04.705Z,56.5
2022-10-02T03:17:04.559Z,56.6
2022-10-02T03:18:04.602Z,56.7
2022-10-02T03:19:04.562Z,56.4
2022-10-02T03:20:04.798Z,56.5
2022-10-02T03:21:04.564Z,56.6
2022-10-02T03:22:04.560Z,56.5
2022-10-02T03:23:04.577Z,56.5
2022-10-02T03:24:04.598Z,56.7
2022-10-02T03:25:04.558Z,56.7
2022-10-02T03:26:04.616Z,56.8
2022-10-02T03:27:04.558Z,56.8
2022-10-02T03:28:04.591Z,56.7
2022-10-02T03:29:04.613Z,56.7
2022-10-02T03:30:04.606Z,56.6
2022-10-02T03:31:04.587Z,56.5
2022-10-02T03:32:04.585Z,56.5
2022-10-02T03:33:04.577Z,56.5
2022-10-02T03:34:05.891Z,56.5
2022-10-02T03:35:04.571Z,56.5
2022-10-02T03:36:04.614Z,56.5
2022-10-02T03:37:04.571Z,56.6
2022-10-02T03:38:04.574Z,56.7
2022-10-02T03:39:24.586Z,56.6
2022-10-02T03:40:04.569Z,56.8
2022-10-02T03:41:04.554Z,56.7
2022-10-02T03:42:04.603Z,56.5
2022-10-02T03:43:04.562Z,56.5
2022-10-02T03:44:04.575Z,56.5
2022-10-02T03:45:04.647Z,56.5
2022-10-02T03:46:04.651Z,56.5
2022-10-02T03:47:04.565Z,56.5
2022-10-02T03:48:04.569Z,56.4
2022-10-02T03:49:04.574Z,56.4
2022-10-02T03:50:04.577Z,56.3
2022-10-02T03:51:04.598Z,56.3
2022-10-02T03:52:04.596Z,56.2
2022-10-02T03:53:04.564Z,56.2
2022-10-02T03:54:04.574Z,56.3
2022-10-02T03:55:04.586Z,56.3
2022-10-02T03:56:04.579Z,56.3
2022-10-02T03:57:04.569Z,56.3
2022-10-02T03:58:04.611Z,56.4
2022-10-02T03:59:04.648Z,56.3
2022-10-02T04:00:04.577Z,56.4
2022-10-02T04:01:04.579Z,56.3
2022-10-02T04:02:04.626Z,56.3
2022-10-02T04:03:04.617Z,56.2
2022-10-02T04:04:04.596Z,56.2
2022-10-02T04:05:04.572Z,56.2
2022-10-02T04:06:04.617Z,56.2
2022-10-02T04:07:04.578Z,56.0
2022-10-02T04:08:04.579Z,55.9
2022-10-02T04:09:04.567Z,55.8
2022-10-02T04:10:04.577Z,55.8
2022-10-02T04:11:04.572Z,55.7
2022-10-02T04:12:04.634Z,55.6
2022-10-02T04:13:04.572Z,55.6
2022-10-02T04:14:04.581Z,55.8
2022-10-02T04:15:04.599Z,55.8
2022-10-02T04:16:04.619Z,55.8
2022-10-02T04:17:04.580Z,55.8
2022-10-02T04:18:04.610Z,55.8
2022-10-02T04:19:04.572Z,55.9
2022-10-02T04:20:04.583Z,56.0
2022-10-02T04:21:04.579Z,56.0
2022-10-02T04:22:04.587Z,55.8
2022-10-02T04:24:55.305Z,57.2
2022-10-02T04:25:04.003Z,56.8
2022-10-02T04:26:04.027Z,55.8
2022-10-02T04:27:04.010Z,55.7
2022-10-02T04:28:04.054Z,55.5
2022-10-02T04:29:04.023Z,55.4
2022-10-02T04:30:04.910Z,55.4
2022-10-02T04:31:04.012Z,55.3
2022-10-02T04:32:04.038Z,55.2
2022-10-02T04:33:04.007Z,55.1
2022-10-02T04:34:04.001Z,55.1
2022-10-02T04:35:04.045Z,55.0
2022-10-02T04:36:03.997Z,55.0
2022-10-02T04:37:04.002Z,54.9
2022-10-02T04:38:04.038Z,54.9
2022-10-02T04:39:04.024Z,54.9
2022-10-02T04:40:04.001Z,54.8
2022-10-02T04:41:04.005Z,54.8
2022-10-02T04:42:04.005Z,54.7
2022-10-02T04:43:04.014Z,54.8
2022-10-02T04:44:04.055Z,54.7
2022-10-02T04:45:04.042Z,54.7
2022-10-02T04:46:04.081Z,54.7
2022-10-02T04:47:04.007Z,54.7
2022-10-02T04:48:04.014Z,54.7
2022-10-02T04:49:04.019Z,54.7
2022-10-02T04:50:04.049Z,54.6
2022-10-02T04:51:04.026Z,54.6
2022-10-02T04:52:04.001Z,54.7
2022-10-02T04:53:04.009Z,54.7
2022-10-02T04:54:04.016Z,54.7
2022-10-02T04:55:04.024Z,54.7
2022-10-02T04:56:04.034Z,54.7
2022-10-02T04:57:04.009Z,54.7
2022-10-02T04:58:04.013Z,54.7
2022-10-02T04:59:04.022Z,54.7
2022-10-02T05:00:04.109Z,54.7
2022-10-02T05:01:04.074Z,54.6
2022-10-02T05:02:04.067Z,54.8
2022-10-02T05:03:04.012Z,55.0
2022-10-02T05:04:04.192Z,55.1
2022-10-02T05:05:04.015Z,55.2
2022-10-02T05:06:04.012Z,55.2
2022-10-02T05:07:04.020Z,55.2
2022-10-02T05:08:04.073Z,55.1
2022-10-02T05:09:04.019Z,55.1
2022-10-02T05:10:04.018Z,55.1
2022-10-02T05:11:04.024Z,55.1
2022-10-02T05:12:04.010Z,55.1
2022-10-02T05:14:35.412Z,56.6
2022-10-02T05:15:04.155Z,55.4
2022-10-02T05:16:04.884Z,55.3
2022-10-02T05:17:04.139Z,55.2
2022-10-02T05:18:04.113Z,55.2
2022-10-02T05:19:04.119Z,55.1
2022-10-02T05:20:04.143Z,55.1
2022-10-02T05:21:04.117Z,55.0
2022-10-02T05:22:04.110Z,55.0
2022-10-02T05:23:04.128Z,55.1
2022-10-02T05:24:04.114Z,55.1
2022-10-02T05:25:04.121Z,55.1
2022-10-02T05:26:04.184Z,55.1
2022-10-02T05:27:04.142Z,55.1
2022-10-02T05:28:04.174Z,55.0
2022-10-02T05:29:04.121Z,55.1
2022-10-02T05:30:04.126Z,55.1
2022-10-02T05:31:04.264Z,55.0
2022-10-02T05:32:04.147Z,55.1
2022-10-02T05:33:04.142Z,55.0
2022-10-02T05:34:04.121Z,55.0
2022-10-02T05:35:04.124Z,55.0
2022-10-02T05:36:04.120Z,54.9
2022-10-02T05:37:04.129Z,55.0
2022-10-02T05:38:04.143Z,54.9
2022-10-02T05:39:04.119Z,54.9
2022-10-02T05:40:04.128Z,54.9
2022-10-02T05:41:04.122Z,54.8
2022-10-02T05:42:04.140Z,54.8
2022-10-02T05:43:04.119Z,54.8
2022-10-02T05:44:04.145Z,54.7
2022-10-02T05:45:04.137Z,54.7
2022-10-02T05:46:04.167Z,54.9
2022-10-02T05:47:04.162Z,54.8
2022-10-02T05:48:04.114Z,54.9
2022-10-02T05:49:04.174Z,54.7
2022-10-02T05:50:04.129Z,54.7
2022-10-02T05:51:04.134Z,54.7
2022-10-02T05:52:04.149Z,54.7
2022-10-02T05:53:04.124Z,54.6
2022-10-02T05:54:04.183Z,54.6
2022-10-02T05:55:04.124Z,54.6
2022-10-02T05:56:04.125Z,54.5
2022-10-02T05:57:04.136Z,54.6
2022-10-02T05:58:04.159Z,54.5
2022-10-02T05:59:04.125Z,54.5
2022-10-02T06:00:04.136Z,54.5
2022-10-02T06:02:39.120Z,56.1
2022-10-02T06:03:03.758Z,55.1
2022-10-02T06:04:03.780Z,54.7
2022-10-02T06:05:03.749Z,54.7
2022-10-02T06:06:03.764Z,54.6
2022-10-02T06:07:03.750Z,54.6
2022-10-02T06:08:03.763Z,54.5
2022-10-02T06:09:03.752Z,54.4
2022-10-02T06:10:03.803Z,54.4
2022-10-02T06:11:03.754Z,54.4
2022-10-02T06:12:03.761Z,54.3
2022-10-02T06:13:03.762Z,54.3
2022-10-02T06:14:10.466Z,54.5
2022-10-02T06:15:04.173Z,54.3
2022-10-02T06:16:04.261Z,54.2
2022-10-02T06:17:04.171Z,54.2
2022-10-02T06:18:10.882Z,54.3
2022-10-02T06:19:04.607Z,54.1
2022-10-02T06:20:04.601Z,54.0
2022-10-02T06:21:11.363Z,54.3
2022-10-02T06:22:04.074Z,54.0
2022-10-02T06:23:04.068Z,54.0
2022-10-02T06:24:10.796Z,54.1
2022-10-02T06:25:04.504Z,54.0
2022-10-02T06:26:05.171Z,54.0
2022-10-02T06:27:04.530Z,53.9
2022-10-02T06:28:04.547Z,53.9
2022-10-02T06:29:04.545Z,53.8
2022-10-02T06:30:04.566Z,53.9
2022-10-02T06:31:04.514Z,53.8
2022-10-02T06:32:04.515Z,53.8
2022-10-02T06:33:04.543Z,53.8
2022-10-02T06:34:04.509Z,53.8
2022-10-02T06:35:04.498Z,53.7
2022-10-02T06:36:04.507Z,53.7
2022-10-02T06:37:04.509Z,53.7
2022-10-02T06:38:04.520Z,53.7
2022-10-02T06:39:04.557Z,53.7
2022-10-02T06:40:04.510Z,53.7
2022-10-02T06:41:04.530Z,53.6
2022-10-02T06:42:04.517Z,53.6
2022-10-02T06:43:04.509Z,53.6
2022-10-02T06:44:04.547Z,53.6
2022-10-02T06:45:04.598Z,53.6
2022-10-02T06:46:04.564Z,53.7
2022-10-02T06:47:04.504Z,53.8
2022-10-02T06:48:04.515Z,53.7
2022-10-02T06:49:04.517Z,53.7
2022-10-02T06:50:04.520Z,53.7
2022-10-02T06:51:04.535Z,53.7
2022-10-02T06:52:04.523Z,53.7
2022-10-02T06:53:04.513Z,53.7
2022-10-02T06:54:04.510Z,53.6
2022-10-02T06:55:04.515Z,53.6
2022-10-02T06:56:04.525Z,53.6
2022-10-02T06:57:04.538Z,53.6
2022-10-02T06:58:04.524Z,53.6
2022-10-02T06:59:04.522Z,53.6
2022-10-02T07:00:04.723Z,53.5
2022-10-02T07:01:04.636Z,53.5
2022-10-02T07:02:04.647Z,53.4
2022-10-02T07:03:04.550Z,53.4
2022-10-02T07:04:04.518Z,53.4
2022-10-02T07:05:04.543Z,53.4
2022-10-02T07:06:04.530Z,53.4
2022-10-02T07:07:04.519Z,53.4
2022-10-02T07:08:04.517Z,53.4
2022-10-02T07:09:04.551Z,53.3
2022-10-02T07:10:04.532Z,53.3
2022-10-02T07:11:04.527Z,53.3
2022-10-02T07:12:04.515Z,53.3
2022-10-02T07:13:04.528Z,53.2
2022-10-02T07:14:04.521Z,53.3
2022-10-02T07:15:04.565Z,53.3
2022-10-02T07:16:04.559Z,53.3
2022-10-02T07:17:04.514Z,53.3
2022-10-02T07:18:04.623Z,53.3
2022-10-02T07:19:04.648Z,53.3
2022-10-02T07:20:04.545Z,53.3
2022-10-02T07:21:04.546Z,53.4
2022-10-02T07:22:20.254Z,53.5
2022-10-02T07:23:07.531Z,53.7
2022-10-02T07:24:04.522Z,53.6
2022-10-02T07:25:04.521Z,53.5
2022-10-02T07:26:04.534Z,53.5
2022-10-02T07:27:04.545Z,53.4
2022-10-02T07:28:04.575Z,53.4
2022-10-02T07:29:04.518Z,53.4
2022-10-02T07:30:04.528Z,53.4
2022-10-02T07:32:13.932Z,53.4
2022-10-02T07:32:17.933Z,55.7
2022-10-02T07:33:04.553Z,53.7
2022-10-02T07:34:04.523Z,53.5
2022-10-02T07:35:04.573Z,53.5
2022-10-02T07:36:05.446Z,53.4
2022-10-02T07:37:04.546Z,53.4
2022-10-02T07:38:04.619Z,53.3
2022-10-02T07:39:04.520Z,53.3
2022-10-02T07:40:04.548Z,53.2
2022-10-02T07:41:04.526Z,53.2
2022-10-02T07:42:04.545Z,53.2
2022-10-02T07:43:04.526Z,53.2
2022-10-02T07:44:04.569Z,53.2
2022-10-02T07:45:04.528Z,53.1
2022-10-02T07:46:04.617Z,53.1
2022-10-02T07:47:04.533Z,53.1
2022-10-02T07:48:04.531Z,53.1
2022-10-02T07:49:04.535Z,53.1
2022-10-02T07:50:04.558Z,53.1
2022-10-02T07:51:04.559Z,53.1
2022-10-02T07:52:04.537Z,53.0
2022-10-02T07:53:04.526Z,53.0
2022-10-02T07:54:04.544Z,53.0
2022-10-02T07:55:04.543Z,53.0
2022-10-02T07:56:04.568Z,53.1
2022-10-02T07:57:09.113Z,53.0
2022-10-02T07:58:04.547Z,53.1
2022-10-02T07:59:04.534Z,53.0
2022-10-02T08:00:04.556Z,53.1
2022-10-02T08:01:04.537Z,53.1
2022-10-02T08:02:04.627Z,53.0
2022-10-02T08:03:04.564Z,53.1
2022-10-02T08:04:04.554Z,53.1
2022-10-02T08:05:04.560Z,53.0
2022-10-02T08:06:04.577Z,53.0
2022-10-02T08:07:04.537Z,53.0
2022-10-02T08:08:04.587Z,53.0
2022-10-02T08:09:04.545Z,53.0
2022-10-02T08:10:04.793Z,53.0
2022-10-02T08:11:04.530Z,53.1
2022-10-02T08:12:04.575Z,53.0
2022-10-02T08:13:04.536Z,53.1
2022-10-02T08:14:04.584Z,53.0
2022-10-02T08:15:04.578Z,53.2
2022-10-02T08:16:04.683Z,53.1
2022-10-02T08:17:04.543Z,53.1
2022-10-02T08:18:30.181Z,53.1
2022-10-02T08:19:04.585Z,53.4
2022-10-02T08:20:04.588Z,53.2
2022-10-02T08:21:04.542Z,53.1
2022-10-02T08:22:04.537Z,53.0
2022-10-02T08:23:04.556Z,53.0
2022-10-02T08:24:04.540Z,53.0
2022-10-02T08:25:04.529Z,53.0
2022-10-02T08:26:04.601Z,53.0
2022-10-02T08:27:04.531Z,52.9
2022-10-02T08:28:04.618Z,52.9
2022-10-02T08:29:04.537Z,52.9
2022-10-02T08:30:04.557Z,52.9
2022-10-02T08:32:34.698Z,52.8
2022-10-02T08:32:39.077Z,55.2
2022-10-02T08:33:04.565Z,53.3
2022-10-02T08:34:04.544Z,53.0
2022-10-02T08:35:04.556Z,52.9
2022-10-02T08:36:04.666Z,52.8
2022-10-02T08:37:04.534Z,52.8
2022-10-02T08:38:04.540Z,52.8
2022-10-02T08:39:04.558Z,52.8
2022-10-02T08:40:04.553Z,52.7
2022-10-02T08:41:04.542Z,52.8
2022-10-02T08:42:04.616Z,52.7
2022-10-02T08:43:04.553Z,52.6
2022-10-02T08:44:04.567Z,52.7
2022-10-02T08:45:04.584Z,52.6
2022-10-02T08:46:04.626Z,52.6
2022-10-02T08:47:04.539Z,52.6
2022-10-02T08:48:04.578Z,52.6
2022-10-02T08:49:04.545Z,52.6
2022-10-02T08:50:04.552Z,52.6
2022-10-02T08:51:04.551Z,52.6
2022-10-02T08:52:04.562Z,52.6
2022-10-02T08:53:04.540Z,52.7
2022-10-02T08:54:04.587Z,52.7
2022-10-02T08:55:04.553Z,52.7
2022-10-02T08:56:04.558Z,52.7
2022-10-02T08:57:04.563Z,52.7
2022-10-02T08:58:04.552Z,52.7
2022-10-02T08:59:04.546Z,52.7
2022-10-02T09:00:04.584Z,52.6
2022-10-02T09:01:04.582Z,52.6
2022-10-02T09:02:04.586Z,52.6
2022-10-02T09:03:04.540Z,52.6
2022-10-02T09:04:04.548Z,52.5
2022-10-02T09:05:04.586Z,52.6
2022-10-02T09:06:04.653Z,52.7
2022-10-02T09:07:04.563Z,52.6
2022-10-02T09:08:04.574Z,52.5
2022-10-02T09:09:04.552Z,52.5
2022-10-02T09:10:04.573Z,52.5
2022-10-02T09:11:04.604Z,52.3
2022-10-02T09:12:04.563Z,52.4
2022-10-02T09:13:04.589Z,52.5
2022-10-02T09:14:04.625Z,52.5
2022-10-02T09:15:04.554Z,52.5
2022-10-02T09:16:04.615Z,52.4
2022-10-02T09:17:04.609Z,52.4
2022-10-02T09:18:04.547Z,52.5
2022-10-02T09:19:04.553Z,52.6
2022-10-02T09:20:04.594Z,52.6
2022-10-02T09:21:09.305Z,52.5
2022-10-02T09:22:04.571Z,52.7
2022-10-02T09:23:04.589Z,52.7
2022-10-02T09:24:04.550Z,52.7
2022-10-02T09:25:04.567Z,52.9
2022-10-02T09:26:04.558Z,52.9
2022-10-02T09:27:04.557Z,51.0
2022-10-02T09:30:04.942Z,52.0
2022-10-02T09:30:10.980Z,54.0
2022-10-02T09:31:04.555Z,52.4
2022-10-02T09:32:04.564Z,52.1
2022-10-02T09:33:04.557Z,51.8
2022-10-02T09:34:04.562Z,51.1
2022-10-02T09:35:04.554Z,51.7
2022-10-02T09:36:05.687Z,51.6
2022-10-02T09:37:04.562Z,51.6
2022-10-02T09:38:04.570Z,51.9
2022-10-02T09:39:04.557Z,52.0
2022-10-02T09:40:04.568Z,52.3
2022-10-02T09:41:04.564Z,52.4
2022-10-02T09:42:05.655Z,52.6
2022-10-02T09:43:04.565Z,52.9
2022-10-02T09:44:04.575Z,52.8
2022-10-02T09:45:04.657Z,52.8
2022-10-02T09:46:05.577Z,52.8
2022-10-02T09:47:04.651Z,52.9
2022-10-02T09:48:04.596Z,52.7
2022-10-02T09:49:04.570Z,52.8
2022-10-02T09:50:04.621Z,52.7
2022-10-02T09:51:04.562Z,52.7
2022-10-02T09:52:04.733Z,52.7
2022-10-02T09:53:04.659Z,52.7
2022-10-02T09:54:04.592Z,52.7
2022-10-02T09:55:04.583Z,52.7
2022-10-02T09:56:04.575Z,52.8
2022-10-02T09:57:04.617Z,52.8
2022-10-02T09:58:04.594Z,52.9
2022-10-02T09:59:04.568Z,52.8
2022-10-02T10:00:04.612Z,53.0
2022-10-02T10:01:04.697Z,53.0
2022-10-02T10:02:04.663Z,53.0
2022-10-02T10:03:04.571Z,53.1
2022-10-02T10:04:04.577Z,53.1
2022-10-02T10:05:06.820Z,53.0
2022-10-02T10:06:05.506Z,53.0
2022-10-02T10:07:04.596Z,53.0
2022-10-02T10:08:04.666Z,53.0
2022-10-02T10:09:04.605Z,53.0
2022-10-02T10:10:04.589Z,52.9
2022-10-02T10:11:04.572Z,52.9
2022-10-02T10:12:04.582Z,52.9
2022-10-02T10:13:04.665Z,52.9
2022-10-02T10:14:04.702Z,52.8
2022-10-02T10:15:09.004Z,52.6
2022-10-02T10:16:04.629Z,52.6
2022-10-02T10:17:04.635Z,52.5
2022-10-02T10:18:04.624Z,52.5
2022-10-02T10:19:04.609Z,52.5
2022-10-02T10:20:04.701Z,52.4
2022-10-02T10:21:04.669Z,52.4
2022-10-02T10:22:05.525Z,52.5
2022-10-02T10:23:04.623Z,52.6
2022-10-02T10:24:31.062Z,53.5
2022-10-02T10:25:03.841Z,52.6
2022-10-02T10:26:03.822Z,52.5
2022-10-02T10:27:07.313Z,52.5
2022-10-02T10:28:06.001Z,52.5
2022-10-02T10:29:03.870Z,52.5
2022-10-02T10:30:03.851Z,52.4
2022-10-02T10:31:03.789Z,52.4
2022-10-02T10:32:03.987Z,52.3
2022-10-02T10:33:03.839Z,52.3
2022-10-02T10:34:03.855Z,52.4
2022-10-02T10:35:03.831Z,52.4
2022-10-02T10:36:03.848Z,52.5
2022-10-02T10:37:03.840Z,52.6
2022-10-02T10:38:03.919Z,52.6
2022-10-02T10:39:12.875Z,52.8
2022-10-02T11:14:15.418Z,58.2
2022-10-02T11:15:04.422Z,53.2
2022-10-02T11:16:04.772Z,52.9
2022-10-02T11:17:04.552Z,52.7
2022-10-02T11:18:04.424Z,52.5
2022-10-02T11:19:04.529Z,52.4
2022-10-02T11:20:04.442Z,52.5
2022-10-02T11:21:04.463Z,52.5
2022-10-02T11:22:04.472Z,52.4
2022-10-02T11:23:04.424Z,52.6
2022-10-02T11:24:04.439Z,52.6
2022-10-02T11:25:05.290Z,52.8
2022-10-02T11:26:04.653Z,52.9
2022-10-02T11:27:04.760Z,52.8
2022-10-02T11:28:04.497Z,52.8
2022-10-02T11:29:04.544Z,52.6
2022-10-02T11:30:04.429Z,52.6
2022-10-02T11:31:04.531Z,52.6
2022-10-02T11:32:04.488Z,52.8
2022-10-02T11:33:04.437Z,53.0
2022-10-02T11:34:04.430Z,53.0
2022-10-02T11:35:04.651Z,52.8
2022-10-02T11:36:04.456Z,52.8
2022-10-02T11:37:05.285Z,52.7
2022-10-02T11:38:04.472Z,51.8
2022-10-02T11:39:04.537Z,51.4
2022-10-02T11:40:04.425Z,51.4
2022-10-02T11:41:04.447Z,51.4
2022-10-02T11:42:04.450Z,51.7
2022-10-02T11:43:04.484Z,51.6
2022-10-02T11:44:04.502Z,51.5
2022-10-02T11:45:04.467Z,51.6
2022-10-02T11:46:04.540Z,51.6
2022-10-02T11:47:04.459Z,52.0
2022-10-02T11:48:04.423Z,52.3
2022-10-02T11:49:04.489Z,51.8
2022-10-02T11:50:04.628Z,51.2
2022-10-02T11:51:04.433Z,51.6
2022-10-02T11:52:04.421Z,51.7
2022-10-02T11:53:04.435Z,51.7
2022-10-02T11:54:04.449Z,51.8
2022-10-02T11:55:04.442Z,51.7
2022-10-02T11:56:04.511Z,51.8
2022-10-02T11:57:04.563Z,51.8
2022-10-02T11:58:04.519Z,51.8
2022-10-02T11:59:04.494Z,51.7
2022-10-02T12:00:04.493Z,51.7
2022-10-02T12:01:04.498Z,51.6
2022-10-02T12:02:04.706Z,51.8
2022-10-02T12:03:31.569Z,52.7
2022-10-02T12:04:04.589Z,51.5
2022-10-02T12:05:04.653Z,51.7
2022-10-02T12:06:04.604Z,51.9
2022-10-02T12:07:04.642Z,51.9
2022-10-02T12:08:04.627Z,51.6
2022-10-02T12:09:04.686Z,51.6
2022-10-02T12:10:04.728Z,51.4
2022-10-02T12:11:04.670Z,51.5
2022-10-02T12:12:04.751Z,51.3
2022-10-02T12:13:04.762Z,51.5
2022-10-02T12:14:04.720Z,51.5
2022-10-02T12:15:04.709Z,51.5
2022-10-02T12:16:04.993Z,51.5
2022-10-02T12:17:04.680Z,51.5
2022-10-02T12:18:04.920Z,51.2
2022-10-02T12:19:04.781Z,51.2
2022-10-02T12:20:04.728Z,51.1
2022-10-02T12:21:04.664Z,51.1
2022-10-02T12:22:04.685Z,50.8
2022-10-02T12:23:04.754Z,50.8
2022-10-02T12:24:05.715Z,50.7
2022-10-02T12:25:05.055Z,50.8
2022-10-02T12:26:04.665Z,51.0
2022-10-02T12:27:04.870Z,50.8
2022-10-02T12:28:04.785Z,51.1
2022-10-02T12:29:06.802Z,51.0
2022-10-02T12:30:04.917Z,51.1
2022-10-02T12:31:04.719Z,51.0
2022-10-02T12:32:05.816Z,51.0
2022-10-02T12:33:04.764Z,51.0
2022-10-02T12:34:04.712Z,51.0
2022-10-02T12:35:04.696Z,51.1
2022-10-02T12:36:04.752Z,51.1
2022-10-02T12:37:04.703Z,51.2
2022-10-02T12:38:04.784Z,50.4
2022-10-02T12:39:04.693Z,50.4
2022-10-02T12:40:11.469Z,50.8
2022-10-02T12:41:06.497Z,50.8
2022-10-02T12:42:04.261Z,50.9
2022-10-02T12:43:04.190Z,51.1
2022-10-02T12:44:04.205Z,51.0
2022-10-02T12:45:08.020Z,51.2
2022-10-02T12:46:04.270Z,51.4
2022-10-02T12:47:04.184Z,51.5
2022-10-02T12:48:04.255Z,51.6
2022-10-02T12:49:04.171Z,52.0
2022-10-02T12:50:04.092Z,51.9
2022-10-02T12:51:05.635Z,52.3
2022-10-02T12:52:04.106Z,52.2
2022-10-02T12:53:04.208Z,52.4
2022-10-02T12:54:04.196Z,52.4
2022-10-02T12:55:04.112Z,52.5
2022-10-02T12:56:04.243Z,52.5
2022-10-02T12:57:04.103Z,52.5
2022-10-02T12:58:04.193Z,52.5
2022-10-02T12:59:04.140Z,52.5
2022-10-02T13:00:04.133Z,52.7
2022-10-02T13:01:04.181Z,52.7
2022-10-02T13:02:04.167Z,52.9
2022-10-02T13:03:04.750Z,53.1
2022-10-02T13:04:04.091Z,53.1
2022-10-02T13:05:04.146Z,53.1
2022-10-02T13:06:04.985Z,53.0
2022-10-02T13:07:04.132Z,53.4
2022-10-02T13:08:04.106Z,53.1
2022-10-02T13:09:04.101Z,53.1
2022-10-02T13:10:04.222Z,53.0
2022-10-02T13:11:04.181Z,52.9
2022-10-02T13:12:04.244Z,52.9
2022-10-02T13:13:04.116Z,52.9
2022-10-02T13:14:04.126Z,52.9
2022-10-02T13:15:04.104Z,52.8
2022-10-02T13:16:04.197Z,52.6
2022-10-02T13:17:08.888Z,53.1
2022-10-02T13:18:04.136Z,53.0
2022-10-02T13:19:04.147Z,52.9
2022-10-02T13:20:04.192Z,52.9
2022-10-02T13:21:04.146Z,52.9
2022-10-02T13:22:04.181Z,53.0
2022-10-02T13:23:04.149Z,52.8
2022-10-02T13:24:04.154Z,52.7
2022-10-02T13:25:04.109Z,52.5
2022-10-02T13:26:04.105Z,51.7
2022-10-02T13:27:04.176Z,52.1
2022-10-02T13:28:04.156Z,52.5
2022-10-02T13:29:04.491Z,52.0
2022-10-02T13:30:04.122Z,52.1
2022-10-02T13:31:04.103Z,52.2
2022-10-02T13:32:04.120Z,52.2
2022-10-02T13:33:04.108Z,52.3
2022-10-02T13:34:05.016Z,52.4
2022-10-02T13:36:06.172Z,52.5
2022-10-02T13:36:37.485Z,54.1
2022-10-02T13:37:04.435Z,53.1
2022-10-02T13:38:04.405Z,53.0
2022-10-02T13:39:04.425Z,52.9
2022-10-02T13:40:04.447Z,52.9
2022-10-02T13:41:04.509Z,52.8
2022-10-02T13:42:04.403Z,52.8
2022-10-02T13:43:04.437Z,51.7
2022-10-02T13:44:04.399Z,51.7
2022-10-02T13:45:04.463Z,51.9
2022-10-02T13:46:04.535Z,51.7
2022-10-02T13:47:04.412Z,51.8
2022-10-02T13:48:04.409Z,52.0
2022-10-02T13:49:04.559Z,51.9
2022-10-02T13:50:04.417Z,51.8
2022-10-02T13:51:04.388Z,51.7
2022-10-02T13:52:04.456Z,51.6
2022-10-02T13:53:04.420Z,51.6
2022-10-02T13:54:04.429Z,51.5
2022-10-02T13:55:04.521Z,51.5
2022-10-02T13:56:04.522Z,51.4